WetterOnline ( http://www.wetteronline.de )

Wetter aktuell Giesensdorf

Aktuelles Wetter: Lübeck/Blankensee (15m)

6-stündlich | Neueste Meldungen
Ortszeit Temperatur Wetter
Do, 18.10. 14:00 13.4° C Sprühregen
Do, 18.10. 8:00 12.9° C bedeckt
Do, 18.10. 2:00 12.6° C Nebel
Mi, 17.10. 20:00 13.7° C bedeckt
Mi, 17.10. 14:00 22.2° C leicht bewölkt
Mi, 17.10. 8:00 9.9° C bewölkt
Mi, 17.10. 2:00 11.2° C bewölkt
Di, 16.10. 20:00 15.2° C bewölkt
Ortszeit Temperatur Wetter
Do, 18.10. 15:00 13.5° C bedeckt
Do, 18.10. 14:50 13.5° C bedeckt
Do, 18.10. 14:40 13.2° C bedeckt
Do, 18.10. 14:30 13.1° C bedeckt
Do, 18.10. 14:20 13.1° C bedeckt
Do, 18.10. 14:10 13.1° C bedeckt
Do, 18.10. 14:00 13.4° C Sprühregen
Do, 18.10. 13:30 13.7° C Sprühregen
Do, 18.10. 13:00 13.7° C Sprühregen
Do, 18.10. 12:30 14.8° C bedeckt
Do, 18.10. 12:00 15.3° C bedeckt
Ortszeit Relative Feuchte Sichtweite
Do, 18.10. 14:00 93% 13 km
Do, 18.10. 8:00 97% 4.2 km
Do, 18.10. 2:00 100% 0.2 km
Mi, 17.10. 20:00 94% 8 km
Mi, 17.10. 14:00 58% 15 km
Mi, 17.10. 8:00 100% 3.0 km
Mi, 17.10. 2:00 100% 1.7 km
Di, 16.10. 20:00 90% 9 km
Ortszeit Relative Feuchte Sichtweite
Do, 18.10. 15:00 80% 35 km
Do, 18.10. 14:50 80% -
Do, 18.10. 14:40 83% -
Do, 18.10. 14:30 87% 26 km
Do, 18.10. 14:20 87% -
Do, 18.10. 14:10 87% -
Do, 18.10. 14:00 93% 13 km
Do, 18.10. 13:30 93% 3.4 km
Do, 18.10. 13:00 91% 4.6 km
Do, 18.10. 12:30 80% 13 km
Do, 18.10. 12:00 78% 14 km
Ortszeit Niederschlagsmenge Niederschlagsart
Do, 18.10. 14:00 0.1 l/m2 in 6 Std. Regen
Do, 18.10. 8:00 0.0 l/m2 in 12 Std. -
Do, 18.10. 2:00 0.0 l/m2 in 6 Std. -
Mi, 17.10. 20:00 0.0 l/m2 in 12 Std. -
Mi, 17.10. 14:00 0.0 l/m2 in 6 Std. -
Mi, 17.10. 8:00 0.0 l/m2 in 12 Std. -
Mi, 17.10. 2:00 0.0 l/m2 in 6 Std. -
Di, 16.10. 20:00 0.1 l/m2 in 12 Std. Regen
Ortszeit Niederschlagsmenge Niederschlagsart
Do, 18.10. 15:00 0.1 l/m2 in 1 Std. Sprühregen
Do, 18.10. 14:50 keine Meldung -
Do, 18.10. 14:40 keine Meldung -
Do, 18.10. 14:30 0.1 l/m2 in 1 Std. Schnee
Do, 18.10. 14:20 keine Meldung -
Do, 18.10. 14:10 keine Meldung -
Do, 18.10. 14:00 0.1 l/m2 in 1 Std. Regen
Do, 18.10. 13:30 0.1 l/m2 in 1 Std. -
Do, 18.10. 13:00 0.1 l/m2 in 1 Std. Regen
Do, 18.10. 12:30 0.0 l/m2 in 1 Std. -
Do, 18.10. 12:00 0.0 l/m2 in 1 Std. -
Ortszeit Stärke Spitze Richtung
km/h Bft. km/h Grad Sektor
Do, 18.10. 14:00 15 3 22 10° N
Do, 18.10. 8:00 7 2 18 310° NW
Do, 18.10. 2:00 9 2 15 300° NW
Mi, 17.10. 20:00 0 0 11 - -
Mi, 17.10. 14:00 4 1 14 130° SO
Mi, 17.10. 8:00 2 1 6 200° S
Mi, 17.10. 2:00 0 0 7 - -
Di, 16.10. 20:00 4 1 22 250° W
Ortszeit Stärke Spitze Richtung
km/h Bft. km/h Grad Sektor
Do, 18.10. 15:00 15 3 28 360° N
Do, 18.10. 14:50 15 3 - 360° N
Do, 18.10. 14:40 13 3 - 360° N
Do, 18.10. 14:30 17 3 28 10° N
Do, 18.10. 14:20 17 3 - 10° N
Do, 18.10. 14:10 17 3 - 360° N
Do, 18.10. 14:00 15 3 22 10° N
Do, 18.10. 13:30 13 3 20 340° N
Do, 18.10. 13:00 15 3 20 330° NW
Do, 18.10. 12:30 11 2 18 340° N
Do, 18.10. 12:00 9 2 19 10° N
Ortszeit Untergrenze Bedeckung Gattung
total tief tief mittel hoch
Do, 18.10. 14:00 240 m 8/8 8/8 - - -
Do, 18.10. 8:00 120 m 8/8 8/8 - - -
Do, 18.10. 2:00 <30 m 8/8 8/8 - - -
Mi, 17.10. 20:00 6600 m 8/8 8/8 - - -
Mi, 17.10. 14:00 7500 m 8/8 0/8 - - -
Mi, 17.10. 8:00 3000 m 8/8 7/8 - - -
Mi, 17.10. 2:00 3300 m 8/8 7/8 - - -
Di, 16.10. 20:00 3300 m 7/8 7/8 - - -
Ortszeit Bedeckungsgrad in Achtel und Wolkenuntergrenze
Do, 18.10. 15:00 2(840m) 8(1170m)
Do, 18.10. 14:50 2(840m) 8(1170m)
Do, 18.10. 14:40 4(780m) 8(1080m)
Do, 18.10. 14:30 3(270m) 4(570m) 8(720m)
Do, 18.10. 14:20 3(270m) 4(570m) 8(720m)
Do, 18.10. 14:10 5(270m) 8(570m)
Do, 18.10. 14:00 6(240m) 8(390m)
Do, 18.10. 13:30 3(240m) 3(540m) 8(900m)
Do, 18.10. 13:00 4(270m) 7(450m) 8(840m)
Do, 18.10. 12:30 6(540m) 7(720m) 8(1140m)
Do, 18.10. 12:00 3(450m) 8(1170m)
Ortszeit Luftdruck NN (hPa) Tendenz (hPa in 3 Std.)
Do, 18.10. 14:00 1023 + 0,8
Do, 18.10. 8:00 1021 + 0,7
Do, 18.10. 2:00 1020 + 0,3
Mi, 17.10. 20:00 1019 + 0,6
Mi, 17.10. 14:00 1019 - 0,7
Mi, 17.10. 8:00 1020 + 0,3
Mi, 17.10. 2:00 1020 - 0,4
Di, 16.10. 20:00 1019 + 0,9
Ortszeit Luftdruck NN (hPa) Tendenz (hPa in 3 Std.)
Do, 18.10. 15:00 1024 + 0,7
Do, 18.10. 14:50 1024 keine Meldung
Do, 18.10. 14:40 1024 keine Meldung
Do, 18.10. 14:30 1023 + 0,6
Do, 18.10. 14:20 1023 keine Meldung
Do, 18.10. 14:10 1024 keine Meldung
Do, 18.10. 14:00 1023 + 0,8
Do, 18.10. 13:30 1023 + 1,0
Do, 18.10. 13:00 1023 + 0,9
Do, 18.10. 12:30 1023 + 0,7
Do, 18.10. 12:00 1023 + 0,9
Ortszeit Schneehöhe (cm)
Do, 18.10. 14:00 0
Do, 18.10. 8:00 0
Do, 18.10. 2:00 0
Mi, 17.10. 20:00 0
Mi, 17.10. 14:00 0
Mi, 17.10. 8:00 0
Mi, 17.10. 2:00 0
Di, 16.10. 20:00 0
Ortszeit Schneehöhe (cm)
Do, 18.10. 15:00 0
Do, 18.10. 14:50 0
Do, 18.10. 14:40 0
Do, 18.10. 14:30 0
Do, 18.10. 14:20 0
Do, 18.10. 14:10 0
Do, 18.10. 14:00 0
Do, 18.10. 13:30 0
Do, 18.10. 13:00 0
Do, 18.10. 12:30 0
Do, 18.10. 12:00 0
Link zu dieser Seite / Seite empfehlen

Das Wetter in ...